Time,TemperatureF,DewpointF,PressureIn,WindDirection,WindDirectionDegrees,WindSpeedMPH,WindSpeedGustMPH,Humidity,HourlyPrecipIn,Conditions,Clouds,dailyrainin,SoftwareType,DateUTC
2013-02-03 00:01:00,2.8,-7.9,29.73,WSW,240,0.0,0.0,60,0.00,,CLR,0.00,VWS V14.01,2013-02-03 06:01:00,
2013-02-03 00:07:00,2.8,-7.9,29.70,WSW,240,0.0,0.0,60,0.00,,CLR,0.00,VWS V14.01,2013-02-03 06:07:00,
2013-02-03 00:13:00,2.8,-7.9,29.70,WSW,240,0.0,0.0,60,0.00,,CLR,0.00,VWS V14.01,2013-02-03 06:13:00,
2013-02-03 00:18:00,2.5,-8.2,29.70,WSW,240,0.0,0.0,60,0.00,,CLR,0.00,VWS V14.01,2013-02-03 06:18:00,
2013-02-03 00:23:00,2.5,-8.2,29.70,WSW,240,0.0,0.0,60,0.00,,CLR,0.00,VWS V14.01,2013-02-03 06:23:00,
2013-02-03 00:28:00,2.1,-8.6,29.70,WSW,240,0.0,0.0,60,0.00,,CLR,0.00,VWS V14.01,2013-02-03 06:28:00,
2013-02-03 00:34:00,1.9,-8.7,29.70,WSW,237,2.7,2.7,60,0.00,,CLR,0.00,VWS V14.01,2013-02-03 06:34:00,
2013-02-03 00:39:00,1.6,-9.1,29.70,SW,231,2.7,4.0,60,0.00,,CLR,0.00,VWS V14.01,2013-02-03 06:39:00,
2013-02-03 00:45:00,1.6,-9.1,29.70,SW,223,4.0,4.0,60,0.00,,CLR,0.00,VWS V14.01,2013-02-03 06:45:00,
2013-02-03 00:50:00,1.6,-9.1,29.70,SW,219,3.1,4.0,60,0.00,,CLR,0.00,VWS V14.01,2013-02-03 06:50:00,
2013-02-03 00:56:00,1.8,-8.9,29.70,SW,223,4.0,5.8,60,0.00,,CLR,0.00,VWS V14.01,2013-02-03 06:56:00,
2013-02-03 01:02:00,1.9,-8.7,29.70,SW,225,3.1,3.1,60,0.00,,OVC095,0.00,VWS V14.01,2013-02-03 07:02:00,
2013-02-03 01:07:00,1.9,-8.7,29.70,SW,221,3.1,5.4,60,0.00,,OVC095,0.00,VWS V14.01,2013-02-03 07:07:00,
2013-02-03 01:12:00,1.9,-8.7,29.70,SW,217,3.1,4.0,60,0.00,,OVC095,0.00,VWS V14.01,2013-02-03 07:12:00,
2013-02-03 01:18:00,1.8,-8.9,29.70,SW,232,2.7,4.0,60,0.00,,OVC095,0.00,VWS V14.01,2013-02-03 07:18:00,
2013-02-03 01:23:00,1.8,-8.9,29.70,WSW,240,3.1,3.1,60,0.00,,OVC095,0.00,VWS V14.01,2013-02-03 07:23:00,
2013-02-03 01:29:00,1.8,-8.9,29.70,SW,219,4.0,6.3,60,0.00,,OVC095,0.00,VWS V14.01,2013-02-03 07:29:00,
2013-02-03 01:35:00,1.8,-8.9,29.70,SW,235,4.0,4.9,60,0.00,,OVC095,0.00,VWS V14.01,2013-02-03 07:35:00,
2013-02-03 01:41:00,1.8,-8.9,29.70,SW,223,3.6,4.0,60,0.00,,OVC095,0.00,VWS V14.01,2013-02-03 07:41:00,
2013-02-03 01:46:00,1.8,-8.9,29.70,WSW,251,4.0,4.0,60,0.00,,OVC095,0.00,VWS V14.01,2013-02-03 07:46:00,
2013-02-03 01:51:00,1.8,-8.9,29.70,WSW,242,4.0,4.0,60,0.00,,OVC095,0.00,VWS V14.01,2013-02-03 07:51:00,
2013-02-03 01:57:00,1.8,-8.9,29.67,WSW,237,2.2,5.4,60,0.00,,OVC095,0.00,VWS V14.01,2013-02-03 07:57:00,
2013-02-03 02:02:00,1.9,-8.7,29.67,WSW,237,3.1,4.0,60,0.00,,SCT060,0.00,VWS V14.01,2013-02-03 08:02:00,
2013-02-03 02:08:00,2.1,-8.6,29.67,SW,235,0.0,0.0,60,0.00,,SCT060,0.00,VWS V14.01,2013-02-03 08:08:00,
2013-02-03 02:14:00,2.3,-8.4,29.67,SW,234,0.0,0.0,60,0.00,,SCT060,0.00,VWS V14.01,2013-02-03 08:14:00,
2013-02-03 02:19:00,2.3,-8.4,29.67,SW,235,0.0,0.0,60,0.00,,SCT060,0.00,VWS V14.01,2013-02-03 08:19:00,
2013-02-03 02:25:00,2.3,-8.4,29.67,SW,234,0.0,0.0,60,0.00,,SCT060,0.00,VWS V14.01,2013-02-03 08:25:00,
2013-02-03 02:30:00,1.9,-8.7,29.67,SW,234,0.0,0.0,60,0.00,,SCT060,0.00,VWS V14.01,2013-02-03 08:30:00,
2013-02-03 02:36:00,1.8,-8.9,29.67,SW,234,0.0,0.0,60,0.00,,SCT060,0.00,VWS V14.01,2013-02-03 08:36:00,
2013-02-03 02:41:00,1.6,-9.1,29.67,SW,234,0.0,0.0,60,0.00,,SCT060,0.00,VWS V14.01,2013-02-03 08:41:00,
2013-02-03 02:47:00,1.6,-9.1,29.67,SW,231,0.0,0.0,60,0.00,,SCT060,0.00,VWS V14.01,2013-02-03 08:47:00,
2013-02-03 02:52:00,1.6,-9.1,29.67,SW,231,0.0,0.0,60,0.00,,SCT060,0.00,VWS V14.01,2013-02-03 08:52:00,
2013-02-03 02:57:00,1.8,-8.9,29.67,SW,224,2.2,2.7,60,0.00,,SCT060,0.00,VWS V14.01,2013-02-03 08:57:00,
2013-02-03 03:02:00,1.8,-8.9,29.67,SW,229,0.0,0.0,60,0.00,,BKN110,0.00,VWS V14.01,2013-02-03 09:02:00,
2013-02-03 03:07:00,1.9,-8.7,29.67,SW,228,0.0,0.0,60,0.00,,BKN110,0.00,VWS V14.01,2013-02-03 09:07:00,
2013-02-03 03:13:00,1.9,-8.7,29.67,SW,226,0.0,0.0,60,0.00,,BKN110,0.00,VWS V14.01,2013-02-03 09:13:00,
2013-02-03 03:19:00,2.5,-8.2,29.67,WSW,244,2.7,3.6,60,0.00,,BKN110,0.00,VWS V14.01,2013-02-03 09:19:00,
2013-02-03 03:25:00,2.7,-8.1,29.64,WSW,246,0.0,0.0,60,0.00,,BKN110,0.00,VWS V14.01,2013-02-03 09:25:00,
2013-02-03 03:30:00,2.8,-7.9,29.64,SW,232,3.6,4.0,60,0.00,,BKN110,0.00,VWS V14.01,2013-02-03 09:30:00,
2013-02-03 03:35:00,2.8,-7.9,29.64,SW,218,3.6,4.9,60,0.00,,BKN110,0.00,VWS V14.01,2013-02-03 09:35:00,
2013-02-03 03:41:00,2.8,-7.9,29.64,SSW,211,3.6,4.0,60,0.00,,BKN110,0.00,VWS V14.01,2013-02-03 09:41:00,
2013-02-03 03:46:00,2.8,-7.9,29.64,SSW,210,2.2,5.4,60,0.00,,BKN110,0.00,VWS V14.01,2013-02-03 09:46:00,
2013-02-03 03:51:00,2.8,-7.9,29.64,SSW,210,4.0,4.9,60,0.00,,BKN110,0.00,VWS V14.01,2013-02-03 09:51:00,
2013-02-03 03:56:00,3.0,-7.7,29.64,SW,222,4.0,4.9,60,0.00,,BKN110,0.00,VWS V14.01,2013-02-03 09:56:00,
2013-02-03 04:02:00,3.2,-7.5,29.64,SW,216,4.9,4.9,60,0.00,,OVC110,0.00,VWS V14.01,2013-02-03 10:02:00,
2013-02-03 04:07:00,3.2,-7.5,29.64,SW,219,3.6,3.6,60,0.00,,OVC110,0.00,VWS V14.01,2013-02-03 10:07:00,
2013-02-03 04:13:00,3.4,-7.4,29.64,WSW,238,0.0,0.0,60,0.00,,OVC110,0.00,VWS V14.01,2013-02-03 10:13:00,
2013-02-03 04:18:00,3.4,-7.4,29.64,SW,217,4.0,4.0,60,0.00,,OVC110,0.00,VWS V14.01,2013-02-03 10:18:00,
2013-02-03 04:24:00,3.4,-7.4,29.64,SW,217,4.0,4.9,60,0.00,,OVC110,0.00,VWS V14.01,2013-02-03 10:24:00,
2013-02-03 04:29:00,3.6,-7.2,29.64,SW,230,3.1,4.9,60,0.00,,OVC110,0.00,VWS V14.01,2013-02-03 10:29:00,
2013-02-03 04:34:00,3.6,-7.2,29.64,SW,221,4.0,4.0,60,0.00,,OVC110,0.00,VWS V14.01,2013-02-03 10:34:00,
2013-02-03 04:39:00,3.7,-7.0,29.64,SSW,209,3.6,5.4,60,0.00,,OVC110,0.00,VWS V14.01,2013-02-03 10:39:00,
2013-02-03 04:44:00,3.7,-7.0,29.64,SW,221,0.0,4.0,60,0.00,,OVC110,0.00,VWS V14.01,2013-02-03 10:44:00,
2013-02-03 04:49:00,3.9,-6.9,29.64,SW,220,3.1,5.4,60,0.00,,OVC110,0.00,VWS V14.01,2013-02-03 10:49:00,
2013-02-03 04:55:00,4.1,-6.7,29.64,SW,216,2.7,4.9,60,0.00,,OVC110,0.00,VWS V14.01,2013-02-03 10:55:00,
2013-02-03 05:00:00,4.3,-6.5,29.64,SW,220,2.7,2.7,60,0.00,,OVC110,0.00,VWS V14.01,2013-02-03 11:00:00,
2013-02-03 05:05:00,4.5,-6.3,29.64,SW,217,3.6,4.0,60,0.00,,,0.00,VWS V14.01,2013-02-03 11:05:00,
2013-02-03 05:10:00,4.6,-6.2,29.64,SW,221,2.7,3.1,60,0.00,,,0.00,VWS V14.01,2013-02-03 11:10:00,
2013-02-03 05:16:00,5.0,-5.8,29.64,SW,225,4.9,4.9,60,0.00,,,0.00,VWS V14.01,2013-02-03 11:16:00,
2013-02-03 05:21:00,5.4,-5.5,29.64,SW,225,5.8,5.8,60,0.00,,,0.00,VWS V14.01,2013-02-03 11:21:00,
2013-02-03 05:26:00,5.4,-5.5,29.64,SW,232,3.1,5.4,60,0.00,,,0.00,VWS V14.01,2013-02-03 11:26:00,
2013-02-03 05:31:00,5.5,-5.3,29.64,WSW,251,3.1,4.9,60,0.00,,,0.00,VWS V14.01,2013-02-03 11:31:00,
2013-02-03 05:37:00,5.7,-5.2,29.64,WSW,252,3.1,3.1,60,0.00,,,0.00,VWS V14.01,2013-02-03 11:37:00,
2013-02-03 05:42:00,5.9,-5.0,29.64,WSW,251,4.0,4.9,60,0.00,,,0.00,VWS V14.01,2013-02-03 11:42:00,
2013-02-03 05:48:00,6.1,-4.8,29.64,WSW,250,2.7,4.5,60,0.00,,,0.00,VWS V14.01,2013-02-03 11:48:00,
2013-02-03 05:53:00,6.1,-4.8,29.64,WSW,255,3.6,6.3,60,0.00,,,0.00,VWS V14.01,2013-02-03 11:53:00,
2013-02-03 05:59:00,6.3,-4.6,29.64,WSW,244,4.0,4.9,60,0.00,,,0.00,VWS V14.01,2013-02-03 11:59:00,
2013-02-03 06:04:00,6.3,-4.6,29.64,WSW,256,3.6,4.0,60,0.00,,OVC065,0.00,VWS V14.01,2013-02-03 12:04:00,
2013-02-03 06:10:00,6.4,-4.5,29.64,West,262,4.0,5.4,60,0.00,,OVC065,0.00,VWS V14.01,2013-02-03 12:10:00,
2013-02-03 06:16:00,6.4,-4.5,29.64,West,260,4.0,4.0,60,0.00,,OVC065,0.00,VWS V14.01,2013-02-03 12:16:00,
2013-02-03 06:21:00,6.6,-4.3,29.64,WSW,249,2.7,3.1,60,0.00,,OVC065,0.00,VWS V14.01,2013-02-03 12:21:00,
2013-02-03 06:27:00,6.8,-4.1,29.64,WSW,253,3.1,3.1,60,0.00,,OVC065,0.00,VWS V14.01,2013-02-03 12:27:00,
2013-02-03 06:33:00,6.8,-4.1,29.64,WSW,252,2.7,4.0,60,0.00,,OVC065,0.00,VWS V14.01,2013-02-03 12:33:00,
2013-02-03 06:38:00,7.0,-4.0,29.64,West,271,5.4,5.4,60,0.00,,OVC065,0.00,VWS V14.01,2013-02-03 12:38:00,
2013-02-03 06:44:00,7.2,-3.8,29.64,West,277,3.6,3.6,60,0.00,,OVC065,0.00,VWS V14.01,2013-02-03 12:44:00,
2013-02-03 06:49:00,7.3,-3.6,29.64,West,265,4.9,5.4,60,0.00,,OVC065,0.00,VWS V14.01,2013-02-03 12:49:00,
2013-02-03 06:54:00,7.5,-3.5,29.64,West,278,3.6,3.6,60,0.00,,OVC065,0.00,VWS V14.01,2013-02-03 12:54:00,
2013-02-03 06:59:00,7.7,-3.3,29.64,WNW,282,5.8,5.8,60,0.00,,OVC065,0.00,VWS V14.01,2013-02-03 12:59:00,
2013-02-03 07:04:00,7.7,-3.3,29.64,West,280,3.6,4.0,60,0.00,,OVC065,0.00,VWS V14.01,2013-02-03 13:04:00,
2013-02-03 07:10:00,7.9,-3.1,29.64,West,271,3.6,5.8,60,0.00,,OVC065,0.00,VWS V14.01,2013-02-03 13:10:00,
2013-02-03 07:15:00,7.9,-3.1,29.64,West,262,2.7,3.1,60,0.00,,OVC065,0.00,VWS V14.01,2013-02-03 13:15:00,
2013-02-03 07:20:00,8.1,-2.9,29.64,WNW,285,3.6,4.0,60,0.00,,OVC065,0.00,VWS V14.01,2013-02-03 13:20:00,
2013-02-03 07:26:00,8.1,-2.9,29.64,WNW,299,3.6,8.1,60,0.00,,OVC065,0.00,VWS V14.01,2013-02-03 13:26:00,
2013-02-03 07:31:00,8.1,-2.9,29.64,NW,307,5.8,6.3,60,0.00,,OVC065,0.00,VWS V14.01,2013-02-03 13:31:00,
2013-02-03 07:37:00,8.1,-2.9,29.64,WNW,293,6.3,6.3,60,0.00,,OVC065,0.00,VWS V14.01,2013-02-03 13:37:00,
2013-02-03 07:42:00,8.2,-2.8,29.64,WNW,288,4.9,5.8,60,0.00,,OVC065,0.00,VWS V14.01,2013-02-03 13:42:00,
2013-02-03 07:47:00,8.4,-2.6,29.64,NW,320,9.6,9.6,60,0.00,,OVC065,0.00,VWS V14.01,2013-02-03 13:47:00,
2013-02-03 07:52:00,8.4,-2.6,29.64,WSW,245,6.3,7.6,60,0.00,,OVC065,0.00,VWS V14.01,2013-02-03 13:52:00,
2013-02-03 07:58:00,8.4,-2.6,29.64,WNW,303,5.8,8.1,60,0.00,,OVC065,0.00,VWS V14.01,2013-02-03 13:58:00,
2013-02-03 08:03:00,8.4,-2.6,29.64,WNW,299,6.3,8.7,60,0.00,,OVC042,0.00,VWS V14.01,2013-02-03 14:03:00,
2013-02-03 08:08:00,8.4,-2.6,29.67,WNW,298,6.3,8.7,60,0.00,,OVC042,0.00,VWS V14.01,2013-02-03 14:08:00,
2013-02-03 08:13:00,8.4,-2.6,29.67,NW,313,8.1,8.1,60,0.00,,OVC042,0.00,VWS V14.01,2013-02-03 14:13:00,
2013-02-03 08:18:00,8.4,-2.6,29.67,WNW,297,6.3,8.3,60,0.00,,OVC042,0.00,VWS V14.01,2013-02-03 14:18:00,
2013-02-03 08:23:00,8.4,-2.6,29.67,WNW,299,10.1,11.0,60,0.00,,OVC042,0.00,VWS V14.01,2013-02-03 14:23:00,
2013-02-03 08:28:00,8.4,-2.6,29.67,NW,306,10.5,10.5,60,0.00,,OVC042,0.00,VWS V14.01,2013-02-03 14:28:00,
2013-02-03 08:34:00,8.4,-2.6,29.67,WNW,299,7.6,9.2,60,0.00,,OVC042,0.00,VWS V14.01,2013-02-03 14:34:00,
2013-02-03 08:40:00,8.4,-2.6,29.64,NW,310,8.7,9.6,60,0.00,,OVC042,0.00,VWS V14.01,2013-02-03 14:40:00,
2013-02-03 08:45:00,8.4,-2.6,29.64,WNW,299,8.7,10.5,60,0.00,,OVC042,0.00,VWS V14.01,2013-02-03 14:45:00,
2013-02-03 08:50:00,8.4,-2.6,29.64,WNW,302,6.3,13.2,60,0.00,,OVC042,0.00,VWS V14.01,2013-02-03 14:50:00,
2013-02-03 08:55:00,8.6,-2.4,29.67,NW,314,8.1,8.3,60,0.00,,OVC042,0.00,VWS V14.01,2013-02-03 14:55:00,
2013-02-03 09:01:00,8.6,-2.4,29.67,NW,313,8.1,8.3,60,0.00,,,0.00,VWS V14.01,2013-02-03 15:01:00,
2013-02-03 09:06:00,8.8,-2.3,29.67,WNW,295,7.6,9.2,60,0.00,,,0.00,VWS V14.01,2013-02-03 15:06:00,
2013-02-03 09:12:00,8.8,-2.3,29.67,NW,304,11.0,13.2,60,0.00,,,0.00,VWS V14.01,2013-02-03 15:12:00,
2013-02-03 09:17:00,9.0,-2.1,29.67,NW,304,9.2,12.3,60,0.00,,,0.00,VWS V14.01,2013-02-03 15:17:00,
2013-02-03 09:22:00,9.1,-1.9,29.67,NW,307,12.8,12.8,60,0.00,,,0.00,VWS V14.01,2013-02-03 15:22:00,
2013-02-03 09:28:00,9.1,-1.9,29.67,WNW,286,8.3,8.7,60,0.00,,,0.00,VWS V14.01,2013-02-03 15:28:00,
2013-02-03 09:33:00,9.1,-1.9,29.67,NW,309,10.5,10.5,60,0.00,,,0.00,VWS V14.01,2013-02-03 15:33:00,
2013-02-03 09:38:00,9.1,-1.9,29.67,WNW,302,11.0,11.0,60,0.00,,,0.00,VWS V14.01,2013-02-03 15:38:00,
2013-02-03 09:43:00,9.3,-1.7,29.67,WNW,296,8.3,8.7,60,0.00,,,0.00,VWS V14.01,2013-02-03 15:43:00,
2013-02-03 09:48:00,9.3,-1.7,29.67,NW,312,8.7,10.5,60,0.00,,,0.00,VWS V14.01,2013-02-03 15:48:00,
2013-02-03 09:54:00,9.5,-1.6,29.67,NW,313,11.0,12.3,60,0.00,,,0.00,VWS V14.01,2013-02-03 15:54:00,
2013-02-03 09:59:00,9.5,-1.6,29.67,NW,308,8.3,10.5,60,0.00,,,0.00,VWS V14.01,2013-02-03 15:59:00,
2013-02-03 10:04:00,9.7,-1.4,29.67,NW,306,13.2,14.1,60,0.00,,,0.00,VWS V14.01,2013-02-03 16:04:00,
2013-02-03 10:10:00,9.7,-1.4,29.67,NW,325,10.5,10.5,60,0.00,,,0.00,VWS V14.01,2013-02-03 16:10:00,
2013-02-03 10:15:00,9.9,-1.2,29.67,NW,312,8.1,12.8,60,0.00,,,0.00,VWS V14.01,2013-02-03 16:15:00,
2013-02-03 10:21:00,9.7,-1.4,29.67,NW,314,8.3,10.5,60,0.00,,,0.00,VWS V14.01,2013-02-03 16:21:00,
2013-02-03 10:26:00,9.7,-1.4,29.70,WNW,293,13.2,13.2,60,0.00,,,0.00,VWS V14.01,2013-02-03 16:26:00,
2013-02-03 10:32:00,9.9,-1.2,29.70,NW,306,13.2,13.2,60,0.00,,,0.00,VWS V14.01,2013-02-03 16:32:00,
2013-02-03 10:38:00,10.0,-1.1,29.70,WNW,302,7.6,10.5,60,0.00,,,0.00,VWS V14.01,2013-02-03 16:38:00,
2013-02-03 10:43:00,10.2,-0.9,29.70,NW,305,8.3,10.1,60,0.00,,,0.00,VWS V14.01,2013-02-03 16:43:00,
2013-02-03 10:49:00,10.2,-0.9,29.70,NW,311,12.8,12.8,60,0.00,,,0.00,VWS V14.01,2013-02-03 16:49:00,
2013-02-03 10:54:00,10.2,-0.9,29.70,WNW,301,8.1,10.5,60,0.00,,,0.00,VWS V14.01,2013-02-03 16:54:00,
2013-02-03 11:00:00,10.2,-0.9,29.70,NNW,341,10.1,10.1,60,0.00,,,0.00,VWS V14.01,2013-02-03 17:00:00,
2013-02-03 11:05:00,10.4,-0.7,29.70,WNW,296,9.6,10.5,60,0.00,,OVC065,0.00,VWS V14.01,2013-02-03 17:05:00,
2013-02-03 11:10:00,10.4,-0.7,29.70,NW,318,8.7,8.7,60,0.00,,OVC065,0.00,VWS V14.01,2013-02-03 17:10:00,
2013-02-03 11:15:00,10.4,-0.7,29.70,NW,312,8.1,10.5,60,0.00,,OVC065,0.00,VWS V14.01,2013-02-03 17:15:00,
2013-02-03 11:20:00,10.8,-0.4,29.70,NW,306,8.1,8.7,60,0.00,,OVC065,0.00,VWS V14.01,2013-02-03 17:20:00,
2013-02-03 11:25:00,10.8,-0.4,29.70,NW,320,8.1,12.3,60,0.00,,OVC065,0.00,VWS V14.01,2013-02-03 17:25:00,
2013-02-03 11:31:00,10.9,-0.2,29.70,WNW,302,11.0,11.0,60,0.00,,OVC065,0.00,VWS V14.01,2013-02-03 17:31:00,
2013-02-03 11:36:00,11.1,0.0,29.70,NW,306,7.6,8.3,60,0.00,,OVC065,0.00,VWS V14.01,2013-02-03 17:36:00,
2013-02-03 11:41:00,11.1,0.0,29.70,WNW,289,8.1,8.3,60,0.00,,OVC065,0.00,VWS V14.01,2013-02-03 17:41:00,
2013-02-03 11:46:00,11.3,0.1,29.70,NW,304,5.8,8.7,60,0.00,,OVC065,0.00,VWS V14.01,2013-02-03 17:46:00,
2013-02-03 11:52:00,11.3,0.1,29.70,NW,311,8.7,10.5,60,0.00,,OVC065,0.00,VWS V14.01,2013-02-03 17:52:00,
2013-02-03 11:57:00,11.7,0.5,29.70,WNW,297,10.1,10.1,60,0.00,,OVC065,0.00,VWS V14.01,2013-02-03 17:57:00,
2013-02-03 12:03:00,11.8,0.6,29.70,WNW,301,5.8,5.8,60,0.00,,SCT022,0.00,VWS V14.01,2013-02-03 18:03:00,
2013-02-03 12:08:00,12.2,1.0,29.70,WNW,300,8.3,10.5,60,0.00,,SCT022,0.00,VWS V14.01,2013-02-03 18:08:00,
2013-02-03 12:14:00,12.2,1.0,29.70,WSW,254,3.6,8.3,60,0.00,,SCT022,0.00,VWS V14.01,2013-02-03 18:14:00,
2013-02-03 12:19:00,12.2,1.0,29.70,WNW,300,10.1,10.5,60,0.00,,SCT022,0.00,VWS V14.01,2013-02-03 18:19:00,
2013-02-03 12:25:00,12.2,1.0,29.70,WNW,282,6.7,6.7,60,0.00,,SCT022,0.00,VWS V14.01,2013-02-03 18:25:00,
2013-02-03 12:31:00,12.7,1.5,29.70,NW,314,8.3,10.1,60,0.00,,SCT022,0.00,VWS V14.01,2013-02-03 18:31:00,
2013-02-03 12:36:00,12.9,1.7,29.70,WNW,285,8.1,8.3,60,0.00,,SCT022,0.00,VWS V14.01,2013-02-03 18:36:00,
2013-02-03 12:42:00,12.9,1.7,29.67,WNW,282,4.9,7.6,60,0.00,,SCT022,0.00,VWS V14.01,2013-02-03 18:42:00,
2013-02-03 12:48:00,12.9,1.7,29.67,West,263,5.4,5.8,60,0.00,,SCT022,0.00,VWS V14.01,2013-02-03 18:48:00,
2013-02-03 12:53:00,13.1,1.8,29.70,WNW,288,7.6,8.3,60,0.00,,SCT022,0.00,VWS V14.01,2013-02-03 18:53:00,
2013-02-03 12:58:00,13.1,1.8,29.70,WNW,291,4.0,5.8,60,0.00,,SCT022,0.00,VWS V14.01,2013-02-03 18:58:00,
2013-02-03 13:03:00,13.3,2.0,29.70,WNW,301,6.3,6.3,60,0.00,,FEW024,0.00,VWS V14.01,2013-02-03 19:03:00,
2013-02-03 13:09:00,13.3,2.0,29.70,WNW,301,7.6,7.6,60,0.00,,FEW024,0.00,VWS V14.01,2013-02-03 19:09:00,
2013-02-03 13:14:00,13.3,2.0,29.70,West,280,2.7,5.8,60,0.00,,FEW024,0.00,VWS V14.01,2013-02-03 19:14:00,
2013-02-03 13:20:00,13.5,2.2,29.70,WSW,253,4.0,6.3,60,0.00,,FEW024,0.00,VWS V14.01,2013-02-03 19:20:00,
2013-02-03 13:26:00,13.8,2.5,29.67,WSW,254,3.1,5.8,60,0.00,,FEW024,0.00,VWS V14.01,2013-02-03 19:26:00,
2013-02-03 13:32:00,13.8,2.5,29.67,WSW,253,3.6,6.3,60,0.00,,FEW024,0.00,VWS V14.01,2013-02-03 19:32:00,
2013-02-03 13:38:00,14.4,-5.0,29.70,WNW,298,8.7,10.5,41,0.00,,FEW024,0.00,VWS V14.01,2013-02-03 19:38:00,
2013-02-03 13:43:00,14.4,-5.0,29.70,WNW,303,6.3,6.3,41,0.00,,FEW024,0.00,VWS V14.01,2013-02-03 19:43:00,
2013-02-03 13:48:00,14.2,-5.7,29.70,West,262,4.9,5.8,40,0.00,,FEW024,0.00,VWS V14.01,2013-02-03 19:48:00,
2013-02-03 13:53:00,14.4,-4.0,29.70,WNW,289,5.8,5.8,43,0.00,,FEW024,0.00,VWS V14.01,2013-02-03 19:53:00,
2013-02-03 13:59:00,14.5,-3.9,29.70,WNW,293,5.8,6.3,43,0.00,,FEW024,0.00,VWS V14.01,2013-02-03 19:59:00,
2013-02-03 14:04:00,14.5,-4.4,29.70,WNW,286,3.1,6.3,42,0.00,,CLR,0.00,VWS V14.01,2013-02-03 20:04:00,
2013-02-03 14:09:00,14.7,-4.7,29.70,NW,309,11.4,11.4,41,0.00,,CLR,0.00,VWS V14.01,2013-02-03 20:09:00,
2013-02-03 14:15:00,14.9,-4.0,29.70,WNW,299,3.1,6.3,42,0.00,,CLR,0.00,VWS V14.01,2013-02-03 20:15:00,
2013-02-03 14:20:00,14.9,-5.1,29.70,WNW,297,7.6,7.6,40,0.00,,CLR,0.00,VWS V14.01,2013-02-03 20:20:00,
2013-02-03 14:26:00,15.3,-4.2,29.70,NW,311,5.8,5.8,41,0.00,,CLR,0.00,VWS V14.01,2013-02-03 20:26:00,
2013-02-03 14:31:00,15.3,-3.7,29.70,WNW,300,5.4,5.4,42,0.00,,CLR,0.00,VWS V14.01,2013-02-03 20:31:00,
2013-02-03 14:37:00,15.3,-3.2,29.70,WNW,298,8.1,8.1,43,0.00,,CLR,0.00,VWS V14.01,2013-02-03 20:37:00,
2013-02-03 14:43:00,15.3,-3.2,29.70,West,268,4.9,6.3,43,0.00,,CLR,0.00,VWS V14.01,2013-02-03 20:43:00,
2013-02-03 14:48:00,15.4,-4.0,29.70,WNW,289,4.0,6.3,41,0.00,,CLR,0.00,VWS V14.01,2013-02-03 20:48:00,
2013-02-03 14:54:00,15.6,-4.4,29.70,WNW,298,4.0,5.8,40,0.00,,CLR,0.00,VWS V14.01,2013-02-03 20:54:00,
2013-02-03 14:59:00,15.8,-4.8,29.70,WNW,288,5.4,8.1,39,0.00,,CLR,0.00,VWS V14.01,2013-02-03 20:59:00,
2013-02-03 15:05:00,15.4,-5.6,29.70,WNW,290,3.1,5.4,38,0.00,,CLR,0.00,VWS V14.01,2013-02-03 21:05:00,
2013-02-03 15:11:00,15.4,-5.1,29.70,WNW,298,3.6,6.7,39,0.00,,CLR,0.00,VWS V14.01,2013-02-03 21:11:00,
2013-02-03 15:16:00,15.4,-5.6,29.70,WNW,284,4.0,6.3,38,0.00,,CLR,0.00,VWS V14.01,2013-02-03 21:16:00,
2013-02-03 15:22:00,15.3,-4.7,29.70,WNW,294,6.3,6.3,40,0.00,,CLR,0.00,VWS V14.01,2013-02-03 21:22:00,
2013-02-03 15:27:00,16.0,-5.1,29.70,West,277,5.4,5.8,38,0.00,,CLR,0.00,VWS V14.01,2013-02-03 21:27:00,
2013-02-03 15:32:00,16.5,-5.8,29.70,West,259,3.1,5.4,36,0.00,,CLR,0.00,VWS V14.01,2013-02-03 21:32:00,
2013-02-03 15:37:00,17.1,-4.7,29.70,WNW,291,5.4,5.8,37,0.00,,CLR,0.00,VWS V14.01,2013-02-03 21:37:00,
2013-02-03 15:42:00,16.2,-6.1,29.70,West,265,3.6,6.3,36,0.00,,CLR,0.00,VWS V14.01,2013-02-03 21:42:00,
2013-02-03 15:47:00,15.6,-6.0,29.70,West,267,2.7,3.1,37,0.00,,CLR,0.00,VWS V14.01,2013-02-03 21:47:00,
2013-02-03 15:53:00,15.4,-6.2,29.70,WSW,254,5.8,5.8,37,0.00,,CLR,0.00,VWS V14.01,2013-02-03 21:53:00,
2013-02-03 15:58:00,15.4,-6.2,29.70,WNW,283,0.0,4.0,37,0.00,,CLR,0.00,VWS V14.01,2013-02-03 21:58:00,
2013-02-03 16:03:00,15.3,-5.8,29.70,SW,225,4.0,4.0,38,0.00,,CLR,0.00,VWS V14.01,2013-02-03 22:03:00,
2013-02-03 16:08:00,15.3,-5.2,29.70,WNW,290,0.0,0.0,39,0.00,,CLR,0.00,VWS V14.01,2013-02-03 22:08:00,
2013-02-03 16:13:00,15.4,-5.6,29.70,West,260,4.9,4.9,38,0.00,,CLR,0.00,VWS V14.01,2013-02-03 22:13:00,
2013-02-03 16:19:00,15.6,-6.0,29.70,West,266,4.0,6.3,37,0.00,,CLR,0.00,VWS V14.01,2013-02-03 22:19:00,
2013-02-03 16:25:00,16.0,-5.7,29.70,West,281,3.6,4.9,37,0.00,,CLR,0.00,VWS V14.01,2013-02-03 22:25:00,
2013-02-03 16:30:00,15.8,-4.2,29.70,WNW,290,2.7,3.1,40,0.00,,CLR,0.00,VWS V14.01,2013-02-03 22:30:00,
2013-02-03 16:35:00,15.8,-3.2,29.70,WNW,289,0.0,0.0,42,0.00,,CLR,0.00,VWS V14.01,2013-02-03 22:35:00,
2013-02-03 16:40:00,15.6,-4.4,29.70,West,274,0.0,0.0,40,0.00,,CLR,0.00,VWS V14.01,2013-02-03 22:40:00,
2013-02-03 16:45:00,15.3,-3.7,29.70,West,276,0.0,0.0,42,0.00,,CLR,0.00,VWS V14.01,2013-02-03 22:45:00,
2013-02-03 16:50:00,14.9,-5.1,29.70,West,271,0.0,0.0,40,0.00,,CLR,0.00,VWS V14.01,2013-02-03 22:50:00,
2013-02-03 16:55:00,14.5,-4.9,29.70,West,272,0.0,0.0,41,0.00,,CLR,0.00,VWS V14.01,2013-02-03 22:55:00,
2013-02-03 17:01:00,13.8,-4.5,29.70,West,271,0.0,0.0,43,0.00,,FEW034,0.00,VWS V14.01,2013-02-03 23:01:00,
2013-02-03 17:07:00,13.5,-4.9,29.70,West,272,0.0,0.0,43,0.00,,FEW034,0.00,VWS V14.01,2013-02-03 23:07:00,
2013-02-03 17:12:00,13.1,-5.2,29.70,West,272,0.0,0.0,43,0.00,,FEW034,0.00,VWS V14.01,2013-02-03 23:12:00,
2013-02-03 17:18:00,12.6,-5.7,29.70,West,272,0.0,0.0,43,0.00,,FEW034,0.00,VWS V14.01,2013-02-03 23:18:00,
2013-02-03 17:23:00,12.2,-6.0,29.70,West,271,0.0,0.0,43,0.00,,FEW034,0.00,VWS V14.01,2013-02-03 23:23:00,
2013-02-03 17:29:00,11.8,-6.3,29.70,West,272,0.0,0.0,43,0.00,,FEW034,0.00,VWS V14.01,2013-02-03 23:29:00,
2013-02-03 17:34:00,11.7,-6.5,29.70,West,272,0.0,0.0,43,0.00,,FEW034,0.00,VWS V14.01,2013-02-03 23:34:00,
2013-02-03 17:40:00,11.7,-6.5,29.70,West,271,0.0,0.0,43,0.00,,FEW034,0.00,VWS V14.01,2013-02-03 23:40:00,
2013-02-03 17:46:00,11.3,-6.8,29.70,West,271,0.0,0.0,43,0.00,,FEW034,0.00,VWS V14.01,2013-02-03 23:46:00,
2013-02-03 17:52:00,11.3,-6.8,29.70,West,271,0.0,0.0,43,0.00,,FEW034,0.00,VWS V14.01,2013-02-03 23:52:00,
2013-02-03 17:57:00,11.3,-6.8,29.70,West,270,0.0,0.0,43,0.00,,FEW034,0.00,VWS V14.01,2013-02-03 23:57:00,
2013-02-03 18:02:00,11.1,-7.0,29.70,West,270,0.0,0.0,43,0.00,,CLR,0.00,VWS V14.01,2013-02-04 00:02:00,
2013-02-03 18:07:00,10.9,-7.2,29.70,West,267,0.0,0.0,43,0.00,,CLR,0.00,VWS V14.01,2013-02-04 00:07:00,
2013-02-03 18:12:00,10.9,-7.2,29.70,West,268,0.0,0.0,43,0.00,,CLR,0.00,VWS V14.01,2013-02-04 00:12:00,
2013-02-03 18:17:00,10.9,-7.2,29.70,West,267,0.0,0.0,43,0.00,,CLR,0.00,VWS V14.01,2013-02-04 00:17:00,
2013-02-03 18:22:00,11.1,-7.0,29.70,West,268,0.0,0.0,43,0.00,,CLR,0.00,VWS V14.01,2013-02-04 00:22:00,
2013-02-03 18:27:00,11.1,-7.0,29.70,West,267,0.0,0.0,43,0.00,,CLR,0.00,VWS V14.01,2013-02-04 00:27:00,
2013-02-03 18:33:00,11.1,-7.0,29.70,West,268,0.0,0.0,43,0.00,,CLR,0.00,VWS V14.01,2013-02-04 00:33:00,
2013-02-03 18:38:00,10.9,-7.2,29.70,West,267,0.0,0.0,43,0.00,,CLR,0.00,VWS V14.01,2013-02-04 00:38:00,
2013-02-03 18:43:00,10.8,-7.3,29.70,West,268,0.0,0.0,43,0.00,,CLR,0.00,VWS V14.01,2013-02-04 00:43:00,
2013-02-03 18:49:00,10.4,-7.7,29.70,West,268,0.0,0.0,43,0.00,,CLR,0.00,VWS V14.01,2013-02-04 00:49:00,
2013-02-03 18:54:00,10.0,-8.0,29.70,West,267,0.0,0.0,43,0.00,,CLR,0.00,VWS V14.01,2013-02-04 00:54:00,
2013-02-03 19:00:00,9.5,-8.5,29.70,West,267,0.0,0.0,43,0.00,,CLR,0.00,VWS V14.01,2013-02-04 01:00:00,
2013-02-03 19:05:00,9.5,-8.5,29.70,West,268,0.0,0.0,43,0.00,,CLR,0.00,VWS V14.01,2013-02-04 01:05:00,
2013-02-03 19:11:00,9.5,-8.5,29.73,West,268,0.0,0.0,43,0.00,,CLR,0.00,VWS V14.01,2013-02-04 01:11:00,
2013-02-03 19:17:00,9.7,-8.3,29.73,West,268,0.0,0.0,43,0.00,,CLR,0.00,VWS V14.01,2013-02-04 01:17:00,
2013-02-03 19:22:00,10.0,-8.0,29.73,West,268,0.0,0.0,43,0.00,,CLR,0.00,VWS V14.01,2013-02-04 01:22:00,
2013-02-03 19:28:00,10.2,-7.8,29.73,West,268,0.0,0.0,43,0.00,,CLR,0.00,VWS V14.01,2013-02-04 01:28:00,
2013-02-03 19:33:00,10.4,-7.7,29.73,West,268,0.0,0.0,43,0.00,,CLR,0.00,VWS V14.01,2013-02-04 01:33:00,
2013-02-03 19:38:00,10.6,-7.5,29.73,West,268,0.0,0.0,43,0.00,,CLR,0.00,VWS V14.01,2013-02-04 01:38:00,
2013-02-03 19:43:00,10.8,-7.3,29.73,West,267,0.0,0.0,43,0.00,,CLR,0.00,VWS V14.01,2013-02-04 01:43:00,
2013-02-03 19:49:00,11.1,-7.0,29.73,West,268,0.0,0.0,43,0.00,,CLR,0.00,VWS V14.01,2013-02-04 01:49:00,
2013-02-03 19:55:00,11.3,-6.8,29.73,West,268,0.0,0.0,43,0.00,,CLR,0.00,VWS V14.01,2013-02-04 01:55:00,
2013-02-03 20:00:00,11.3,-6.8,29.73,West,268,0.0,0.0,43,0.00,,CLR,0.00,VWS V14.01,2013-02-04 02:00:00,
2013-02-03 20:06:00,11.3,-6.8,29.73,West,267,0.0,0.0,43,0.00,,CLR,0.00,VWS V14.01,2013-02-04 02:06:00,
2013-02-03 20:11:00,11.3,-6.8,29.73,West,268,0.0,0.0,43,0.00,,CLR,0.00,VWS V14.01,2013-02-04 02:11:00,
2013-02-03 20:16:00,11.3,-6.8,29.73,West,268,0.0,0.0,43,0.00,,CLR,0.00,VWS V14.01,2013-02-04 02:16:00,
2013-02-03 20:21:00,11.5,-6.7,29.73,West,268,0.0,0.0,43,0.00,,CLR,0.00,VWS V14.01,2013-02-04 02:21:00,
2013-02-03 20:26:00,11.5,-6.7,29.73,West,268,0.0,0.0,43,0.00,,CLR,0.00,VWS V14.01,2013-02-04 02:26:00,
2013-02-03 20:31:00,11.7,-6.5,29.73,West,268,0.0,0.0,43,0.00,,CLR,0.00,VWS V14.01,2013-02-04 02:31:00,
2013-02-03 20:37:00,11.7,-6.5,29.73,West,268,0.0,0.0,43,0.00,,CLR,0.00,VWS V14.01,2013-02-04 02:37:00,
2013-02-03 20:42:00,11.7,-6.5,29.73,West,268,0.0,0.0,43,0.00,,CLR,0.00,VWS V14.01,2013-02-04 02:42:00,
2013-02-03 20:48:00,11.7,-6.5,29.73,West,267,0.0,0.0,43,0.00,,CLR,0.00,VWS V14.01,2013-02-04 02:48:00,
2013-02-03 20:53:00,11.7,-6.5,29.73,West,267,0.0,0.0,43,0.00,,CLR,0.00,VWS V14.01,2013-02-04 02:53:00,
2013-02-03 20:59:00,11.8,-6.3,29.73,West,268,0.0,0.0,43,0.00,,CLR,0.00,VWS V14.01,2013-02-04 02:59:00,
2013-02-03 21:04:00,11.8,-6.3,29.73,West,268,0.0,0.0,43,0.00,,BKN070,0.00,VWS V14.01,2013-02-04 03:04:00,
2013-02-03 21:10:00,11.8,-6.3,29.73,West,268,0.0,0.0,43,0.00,,BKN070,0.00,VWS V14.01,2013-02-04 03:10:00,
2013-02-03 21:15:00,11.8,-6.3,29.73,West,268,0.0,0.0,43,0.00,,BKN070,0.00,VWS V14.01,2013-02-04 03:15:00,
2013-02-03 21:20:00,11.8,-6.3,29.73,West,268,0.0,0.0,43,0.00,,BKN070,0.00,VWS V14.01,2013-02-04 03:20:00,
2013-02-03 21:26:00,12.0,-6.2,29.73,West,268,0.0,0.0,43,0.00,,BKN070,0.00,VWS V14.01,2013-02-04 03:26:00,
2013-02-03 21:31:00,12.0,-6.2,29.73,West,267,0.0,0.0,43,0.00,,BKN070,0.00,VWS V14.01,2013-02-04 03:31:00,
2013-02-03 21:37:00,11.8,-6.3,29.73,West,268,0.0,0.0,43,0.00,,BKN070,0.00,VWS V14.01,2013-02-04 03:37:00,
2013-02-03 21:42:00,11.7,-6.5,29.73,West,268,0.0,0.0,43,0.00,,BKN070,0.00,VWS V14.01,2013-02-04 03:42:00,
2013-02-03 21:47:00,11.7,-6.5,29.73,West,268,0.0,0.0,43,0.00,,BKN070,0.00,VWS V14.01,2013-02-04 03:47:00,
2013-02-03 21:52:00,11.3,-6.8,29.73,West,268,0.0,0.0,43,0.00,,BKN070,0.00,VWS V14.01,2013-02-04 03:52:00,
2013-02-03 21:57:00,11.1,-7.0,29.73,West,268,0.0,0.0,43,0.00,,BKN070,0.00,VWS V14.01,2013-02-04 03:57:00,
2013-02-03 22:02:00,11.1,-7.0,29.73,West,268,0.0,0.0,43,0.00,,OVC110,0.00,VWS V14.01,2013-02-04 04:02:00,
2013-02-03 22:07:00,11.1,-7.0,29.73,West,268,0.0,0.0,43,0.00,,OVC110,0.00,VWS V14.01,2013-02-04 04:07:00,
2013-02-03 22:13:00,11.1,-7.0,29.73,West,268,0.0,0.0,43,0.00,,OVC110,0.00,VWS V14.01,2013-02-04 04:13:00,
2013-02-03 22:19:00,11.3,-6.8,29.73,West,267,0.0,0.0,43,0.00,,OVC110,0.00,VWS V14.01,2013-02-04 04:19:00,
2013-02-03 22:24:00,11.3,-6.8,29.73,West,268,0.0,0.0,43,0.00,,OVC110,0.00,VWS V14.01,2013-02-04 04:24:00,
2013-02-03 22:29:00,11.5,-6.7,29.73,West,268,0.0,0.0,43,0.00,,OVC110,0.00,VWS V14.01,2013-02-04 04:29:00,
2013-02-03 22:34:00,11.5,-6.7,29.73,West,268,0.0,0.0,43,0.00,,OVC110,0.00,VWS V14.01,2013-02-04 04:34:00,
2013-02-03 22:40:00,11.7,-6.5,29.73,West,267,0.0,0.0,43,0.00,,OVC110,0.00,VWS V14.01,2013-02-04 04:40:00,
2013-02-03 22:45:00,11.7,-6.5,29.73,West,267,0.0,0.0,43,0.00,,OVC110,0.00,VWS V14.01,2013-02-04 04:45:00,
2013-02-03 22:51:00,11.8,-6.3,29.73,West,268,0.0,0.0,43,0.00,,OVC110,0.00,VWS V14.01,2013-02-04 04:51:00,
2013-02-03 22:56:00,12.0,-6.2,29.73,West,267,0.0,0.0,43,0.00,,OVC110,0.00,VWS V14.01,2013-02-04 04:56:00,
2013-02-03 23:02:00,12.0,-6.2,29.73,West,268,0.0,0.0,43,0.00,,SCT070,0.00,VWS V14.01,2013-02-04 05:02:00,
2013-02-03 23:04:00,12.0,-6.2,29.73,West,268,0.0,0.0,43,0.00,,SCT070,0.00,VWS V14.01,2013-02-04 05:04:00,
2013-02-03 23:05:00,12.0,-6.2,29.73,West,267,0.0,0.0,43,0.00,,SCT070,0.00,VWS V14.01,2013-02-04 05:05:00,
2013-02-03 23:07:00,12.0,-6.2,29.73,West,268,0.0,0.0,43,0.00,,SCT070,0.00,VWS V14.01,2013-02-04 05:07:00,
2013-02-03 23:12:00,12.2,-6.0,29.73,West,268,0.0,0.0,43,0.00,,SCT070,0.00,VWS V14.01,2013-02-04 05:12:00,
2013-02-03 23:17:00,12.2,-6.0,29.73,West,268,0.0,0.0,43,0.00,,SCT070,0.00,VWS V14.01,2013-02-04 05:17:00,
2013-02-03 23:23:00,12.4,-5.8,29.73,West,268,0.0,0.0,43,0.00,,SCT070,0.00,VWS V14.01,2013-02-04 05:23:00,
2013-02-03 23:28:00,12.6,-5.7,29.73,West,268,0.0,0.0,43,0.00,,SCT070,0.00,VWS V14.01,2013-02-04 05:28:00,
2013-02-03 23:34:00,12.4,-5.8,29.73,West,268,0.0,0.0,43,0.00,,SCT070,0.00,VWS V14.01,2013-02-04 05:34:00,
2013-02-03 23:40:00,12.2,-6.0,29.73,West,267,0.0,0.0,43,0.00,,SCT070,0.00,VWS V14.01,2013-02-04 05:40:00,
2013-02-03 23:46:00,12.0,-6.2,29.73,WSW,245,0.0,0.0,43,0.00,,SCT070,0.00,VWS V14.01,2013-02-04 05:46:00,
2013-02-03 23:51:00,12.0,-6.2,29.73,WSW,248,0.0,0.0,43,0.00,,SCT070,0.00,VWS V14.01,2013-02-04 05:51:00,
2013-02-03 23:56:00,12.0,-6.2,29.73,WSW,249,0.0,0.0,43,0.00,,SCT070,0.00,VWS V14.01,2013-02-04 05:56:00,